Map

Track Data

SID SEASON NUMBER BASIN SUBBASIN NAME ISO_TIME NATURE LAT LON WMO_WIND WMO_PRES WMO_AGENCY TRACK_TYPE DIST2LAND LANDFALL IFLAG USA_AGENCY USA_ATCF_ID USA_LAT USA_LON USA_RECORD USA_STATUS USA_WIND USA_PRES USA_SSHS USA_R34_NE USA_R34_SE USA_R34_SW USA_R34_NW USA_R50_NE USA_R50_SE USA_R50_SW USA_R50_NW USA_R64_NE USA_R64_SE USA_R64_SW USA_R64_NW USA_POCI USA_ROCI USA_RMW USA_EYE TOKYO_LAT TOKYO_LON TOKYO_GRADE TOKYO_WIND TOKYO_PRES TOKYO_R50_DIR TOKYO_R50_LONG TOKYO_R50_SHORT TOKYO_R30_DIR TOKYO_R30_LONG TOKYO_R30_SHORT TOKYO_LAND CMA_LAT CMA_LON CMA_CAT CMA_WIND CMA_PRES HKO_LAT HKO_LON HKO_CAT HKO_WIND HKO_PRES NEWDELHI_LAT NEWDELHI_LON NEWDELHI_GRADE NEWDELHI_WIND NEWDELHI_PRES NEWDELHI_CI NEWDELHI_DP NEWDELHI_POCI REUNION_LAT REUNION_LON REUNION_TYPE REUNION_WIND REUNION_PRES REUNION_TNUM REUNION_CI REUNION_RMW REUNION_R34_NE REUNION_R34_SE REUNION_R34_SW REUNION_R34_NW REUNION_R50_NE REUNION_R50_SE REUNION_R50_SW REUNION_R50_NW REUNION_R64_NE REUNION_R64_SE REUNION_R64_SW REUNION_R64_NW BOM_LAT BOM_LON BOM_TYPE BOM_WIND BOM_PRES BOM_TNUM BOM_CI BOM_RMW BOM_R34_NE BOM_R34_SE BOM_R34_SW BOM_R34_NW BOM_R50_NE BOM_R50_SE BOM_R50_SW BOM_R50_NW BOM_R64_NE BOM_R64_SE BOM_R64_SW BOM_R64_NW BOM_ROCI BOM_POCI BOM_EYE BOM_POS_METHOD BOM_PRES_METHOD NADI_LAT NADI_LON NADI_CAT NADI_WIND NADI_PRES WELLINGTON_LAT WELLINGTON_LON WELLINGTON_WIND WELLINGTON_PRES DS824_LAT DS824_LON DS824_STAGE DS824_WIND DS824_PRES TD9636_LAT TD9636_LON TD9636_STAGE TD9636_WIND TD9636_PRES TD9635_LAT TD9635_LON TD9635_WIND TD9635_PRES TD9635_ROCI NEUMANN_LAT NEUMANN_LON NEUMANN_CLASS NEUMANN_WIND NEUMANN_PRES MLC_LAT MLC_LON MLC_CLASS MLC_WIND MLC_PRES USA_GUST BOM_GUST BOM_GUST_PER REUNION_GUST REUNION_GUST_PER USA_SEAHGT USA_SEARAD_NE USA_SEARAD_SE USA_SEARAD_SW USA_SEARAD_NW STORM_SPEED STORM_DIR
1973350S09070 1974 138 SI MM CHRISTIANE 1973-12-16 03:00:00 TS -9.16248 70.2725 main 1822 1822 ______________ -1 8 126
1973350S09070 1974 138 SI MM CHRISTIANE 1973-12-16 06:00:00 TS -9.40000 70.6000 reunion main 1831 1824 _____O______O_ -1 -9.40000 70.6000 3 9.90000 -9.40000 70.6000 TC 40 8 134
1973350S09070 1974 138 SI MM CHRISTIANE 1973-12-16 09:00:00 TS -9.72746 70.8725 main 1833 1819 _____P______P_ -1 -9.75006 70.8624 3 -9.75006 70.8624 TC 40 9 145
1973350S09070 1974 138 SI MM CHRISTIANE 1973-12-16 12:00:00 TS -10.1000 71.1000 reunion main 1821 1808 _____O______O_ -1 -10.1000 71.1000 99 9.90000 -10.1000 71.1000 TC 40 8 150
1973350S09070 1974 138 SI MM CHRISTIANE 1973-12-16 15:00:00 TS -10.4500 71.3001 main 1817 1805 _____P______P_ -1 -10.4500 71.3001 99 -10.4500 71.3001 TC 42 8 151
1973350S09070 1974 138 SI MM CHRISTIANE 1973-12-16 18:00:00 TS -10.8000 71.5000 reunion main 1807 1800 _____O______O_ -1 -10.8000 71.5000 99 9.90000 -10.8000 71.5000 TC 45 9 147
1973350S09070 1974 138 SI MM CHRISTIANE 1973-12-16 21:00:00 TS -11.1650 71.7724 main 1807 1800 _____P______P_ -1 -11.1650 71.7724 99 -11.1650 71.7724 TC 45 9 145
1973350S09070 1974 138 SI MM CHRISTIANE 1973-12-17 00:00:00 TS -11.5000 72.0000 reunion main 1806 1787 _____O______O_ -1 -11.5000 72.0000 99 9.90000 -11.5000 72.0000 TC 45 7 157
1973350S09070 1974 138 SI MM CHRISTIANE 1973-12-17 03:00:00 TS -11.7649 72.0352 main 1787 1781 _____P______P_ -1 -11.7649 72.0352 99 -11.7649 72.0352 TC 47 5 169
1973350S09070 1974 138 SI MM CHRISTIANE 1973-12-17 06:00:00 TS -12.0000 72.1000 reunion main 1784 1778 _____O______O_ -1 -12.0000 72.1000 3 9.90000 -12.0000 72.1000 TC 50 6 144
1973350S09070 1974 138 SI MM CHRISTIANE 1973-12-17 09:00:00 TS -12.2651 72.4049 main 1794 1794 _____P______P_ -1 -12.2651 72.4049 3 -12.2651 72.4049 TC 50 9 126
1973350S09070 1974 138 SI MM CHRISTIANE 1973-12-17 12:00:00 TS -12.5000 72.8000 reunion main 1821 1821 _____O______O_ -1 -12.5000 72.8000 99 9.90000 -12.5000 72.8000 TC 50 9 120
1973350S09070 1974 138 SI MM CHRISTIANE 1973-12-17 15:00:00 TS -12.6875 73.1650 main 1847 1847 _____P______P_ -1 -12.6875 73.1650 99 -12.6875 73.1650 TC 47 7 114
1973350S09070 1974 138 SI MM CHRISTIANE 1973-12-17 18:00:00 TS -12.8000 73.5000 reunion main 1870 1870 _____O______O_ -1 -12.8000 73.5000 99 9.90000 -12.8000 73.5000 TC 45 6 104
1973350S09070 1974 138 SI MM CHRISTIANE 1973-12-17 21:00:00 TS -12.8299 73.7501 main 1899 1899 _____P______P_ -1 -12.8299 73.7501 99 -12.8299 73.7501 TC 42 5 90
1973350S09070 1974 138 SI MM CHRISTIANE 1973-12-18 00:00:00 TS -12.8000 74.0000 reunion main 1918 1918 _____O______O_ -1 -12.8000 74.0000 99 9.90000 -12.8000 74.0000 TC 40 6 84
1973350S09070 1974 138 SI MM CHRISTIANE 1973-12-18 03:00:00 TS -12.7651 74.3650 main 1956 1956 _____P______P_ -1 -12.7651 74.3650 99 -12.7651 74.3650 TC 40 7 82
1973350S09070 1974 138 SI MM CHRISTIANE 1973-12-18 06:00:00 TS -12.7000 74.7000 reunion main 1990 1990 _____O______O_ -1 -12.7000 74.7000 3 9.90000 -12.7000 74.7000 TC 40 6 73
1973350S09070 1974 138 SI MM CHRISTIANE 1973-12-18 09:00:00 TS -12.5999 74.9025 main 2015 2015 _____P______P_ -1 -12.6074 74.8950 3 -12.6074 74.8950 TC 40 4 56
1973350S09070 1974 138 SI MM CHRISTIANE 1973-12-18 12:00:00 TS -12.5000 75.0000 reunion main 2030 _____O______O_ -1 -12.5000 75.0000 99 9.90000 -12.5000 75.0000 TC 40 3 43

About IBTrACS Database

This database is a web-friendly format of International Best Track Archive for Climate Stewardship (IBTrACS), a global best track data archive curated by NOAA dating back to 1842.

Updated: 2021-11-26